sensor_id;sensor_type;location;lat;lon;timestamp;P1;durP1;ratioP1;P2;durP2;ratioP2
66095;SDS011;53861;53.422;14.530;2023-05-07T00:02:10;22.90;;;8.55;;
66095;SDS011;53861;53.422;14.530;2023-05-07T00:04:41;22.50;;;8.55;;
66095;SDS011;53861;53.422;14.530;2023-05-07T00:07:11;18.52;;;8.55;;
66095;SDS011;53861;53.422;14.530;2023-05-07T00:09:41;17.75;;;8.30;;
66095;SDS011;53861;53.422;14.530;2023-05-07T00:12:09;21.73;;;8.88;;
66095;SDS011;53861;53.422;14.530;2023-05-07T00:14:36;18.40;;;7.95;;
66095;SDS011;53861;53.422;14.530;2023-05-07T00:17:04;21.85;;;8.65;;
66095;SDS011;53861;53.422;14.530;2023-05-07T00:19:31;19.45;;;8.25;;
66095;SDS011;53861;53.422;14.530;2023-05-07T00:22:01;21.23;;;8.55;;
66095;SDS011;53861;53.422;14.530;2023-05-07T00:24:32;22.48;;;9.00;;
66095;SDS011;53861;53.422;14.530;2023-05-07T00:27:00;23.55;;;8.27;;
66095;SDS011;53861;53.422;14.530;2023-05-07T00:29:27;24.70;;;8.63;;
66095;SDS011;53861;53.422;14.530;2023-05-07T00:31:54;18.85;;;8.98;;
66095;SDS011;53861;53.422;14.530;2023-05-07T00:34:22;21.75;;;8.32;;
66095;SDS011;53861;53.422;14.530;2023-05-07T00:36:49;19.88;;;8.90;;
66095;SDS011;53861;53.422;14.530;2023-05-07T00:39:17;19.45;;;8.98;;
66095;SDS011;53861;53.422;14.530;2023-05-07T00:41:47;24.17;;;9.00;;
66095;SDS011;53861;53.422;14.530;2023-05-07T00:44:14;21.55;;;8.70;;
66095;SDS011;53861;53.422;14.530;2023-05-07T00:46:42;19.77;;;8.20;;
66095;SDS011;53861;53.422;14.530;2023-05-07T00:49:14;18.53;;;8.47;;
66095;SDS011;53861;53.422;14.530;2023-05-07T00:51:41;19.80;;;8.50;;
66095;SDS011;53861;53.422;14.530;2023-05-07T00:54:13;21.05;;;8.07;;
66095;SDS011;53861;53.422;14.530;2023-05-07T00:56:43;18.13;;;7.93;;
66095;SDS011;53861;53.422;14.530;2023-05-07T00:59:12;18.73;;;8.50;;
66095;SDS011;53861;53.422;14.530;2023-05-07T01:01:41;18.05;;;8.10;;
66095;SDS011;53861;53.422;14.530;2023-05-07T01:04:08;20.27;;;8.23;;
66095;SDS011;53861;53.422;14.530;2023-05-07T01:06:40;18.95;;;7.85;;
66095;SDS011;53861;53.422;14.530;2023-05-07T01:09:08;20.65;;;9.20;;
66095;SDS011;53861;53.422;14.530;2023-05-07T01:11:41;17.83;;;8.43;;
66095;SDS011;53861;53.422;14.530;2023-05-07T01:14:16;21.00;;;8.18;;
66095;SDS011;53861;53.422;14.530;2023-05-07T01:16:46;20.20;;;9.10;;
66095;SDS011;53861;53.422;14.530;2023-05-07T01:19:14;21.83;;;9.20;;
66095;SDS011;53861;53.422;14.530;2023-05-07T01:24:19;24.05;;;9.20;;
66095;SDS011;53861;53.422;14.530;2023-05-07T01:26:46;18.80;;;8.63;;
66095;SDS011;53861;53.422;14.530;2023-05-07T01:29:14;21.63;;;8.85;;
66095;SDS011;53861;53.422;14.530;2023-05-07T01:31:41;22.42;;;8.52;;
66095;SDS011;53861;53.422;14.530;2023-05-07T01:34:10;19.17;;;8.68;;
66095;SDS011;53861;53.422;14.530;2023-05-07T01:36:41;20.58;;;9.18;;
66095;SDS011;53861;53.422;14.530;2023-05-07T01:39:10;22.08;;;9.10;;
66095;SDS011;53861;53.422;14.530;2023-05-07T01:41:43;20.60;;;8.90;;
66095;SDS011;53861;53.422;14.530;2023-05-07T01:44:13;23.38;;;9.02;;
66095;SDS011;53861;53.422;14.530;2023-05-07T01:46:42;18.70;;;8.82;;
66095;SDS011;53861;53.422;14.530;2023-05-07T01:49:09;22.92;;;9.30;;
66095;SDS011;53861;53.422;14.530;2023-05-07T01:51:37;20.80;;;9.40;;
66095;SDS011;53861;53.422;14.530;2023-05-07T01:54:04;21.45;;;9.77;;
66095;SDS011;53861;53.422;14.530;2023-05-07T01:56:32;22.58;;;9.38;;
66095;SDS011;53861;53.422;14.530;2023-05-07T01:59:01;22.42;;;9.57;;
66095;SDS011;53861;53.422;14.530;2023-05-07T02:01:31;22.88;;;9.52;;
66095;SDS011;53861;53.422;14.530;2023-05-07T02:03:58;26.05;;;9.50;;
66095;SDS011;53861;53.422;14.530;2023-05-07T02:06:25;23.08;;;10.10;;
66095;SDS011;53861;53.422;14.530;2023-05-07T02:08:54;25.33;;;10.07;;
66095;SDS011;53861;53.422;14.530;2023-05-07T02:11:22;23.95;;;9.82;;
66095;SDS011;53861;53.422;14.530;2023-05-07T02:13:52;25.17;;;10.07;;
66095;SDS011;53861;53.422;14.530;2023-05-07T02:16:21;23.17;;;9.10;;
66095;SDS011;53861;53.422;14.530;2023-05-07T02:18:49;20.80;;;9.48;;
66095;SDS011;53861;53.422;14.530;2023-05-07T02:21:16;20.40;;;9.00;;
66095;SDS011;53861;53.422;14.530;2023-05-07T02:23:47;21.48;;;8.98;;
66095;SDS011;53861;53.422;14.530;2023-05-07T02:26:18;24.08;;;10.00;;
66095;SDS011;53861;53.422;14.530;2023-05-07T02:28:47;21.27;;;9.25;;
66095;SDS011;53861;53.422;14.530;2023-05-07T02:31:17;22.27;;;9.25;;
66095;SDS011;53861;53.422;14.530;2023-05-07T02:33:46;21.35;;;8.90;;
66095;SDS011;53861;53.422;14.530;2023-05-07T02:36:16;21.98;;;9.10;;
66095;SDS011;53861;53.422;14.530;2023-05-07T02:38:45;21.83;;;9.52;;
66095;SDS011;53861;53.422;14.530;2023-05-07T02:41:12;21.15;;;9.05;;
66095;SDS011;53861;53.422;14.530;2023-05-07T02:43:40;22.83;;;9.45;;
66095;SDS011;53861;53.422;14.530;2023-05-07T02:46:08;23.08;;;9.80;;
66095;SDS011;53861;53.422;14.530;2023-05-07T02:48:36;21.33;;;9.52;;
66095;SDS011;53861;53.422;14.530;2023-05-07T02:51:08;20.33;;;9.02;;
66095;SDS011;53861;53.422;14.530;2023-05-07T02:53:40;20.02;;;9.15;;
66095;SDS011;53861;53.422;14.530;2023-05-07T02:56:11;20.75;;;9.13;;
66095;SDS011;53861;53.422;14.530;2023-05-07T02:58:40;23.08;;;9.68;;
66095;SDS011;53861;53.422;14.530;2023-05-07T03:01:11;20.50;;;9.07;;
66095;SDS011;53861;53.422;14.530;2023-05-07T03:03:39;21.02;;;9.52;;
66095;SDS011;53861;53.422;14.530;2023-05-07T03:06:08;27.10;;;9.93;;
66095;SDS011;53861;53.422;14.530;2023-05-07T03:08:38;25.48;;;10.13;;
66095;SDS011;53861;53.422;14.530;2023-05-07T03:11:06;22.23;;;9.90;;
66095;SDS011;53861;53.422;14.530;2023-05-07T03:13:35;27.20;;;10.60;;
66095;SDS011;53861;53.422;14.530;2023-05-07T03:16:06;20.73;;;9.63;;
66095;SDS011;53861;53.422;14.530;2023-05-07T03:18:33;25.80;;;10.40;;
66095;SDS011;53861;53.422;14.530;2023-05-07T03:21:00;20.85;;;9.48;;
66095;SDS011;53861;53.422;14.530;2023-05-07T03:23:29;23.83;;;9.60;;
66095;SDS011;53861;53.422;14.530;2023-05-07T03:25:56;25.60;;;10.15;;
66095;SDS011;53861;53.422;14.530;2023-05-07T03:28:26;21.58;;;9.98;;
66095;SDS011;53861;53.422;14.530;2023-05-07T03:30:54;23.58;;;9.95;;
66095;SDS011;53861;53.422;14.530;2023-05-07T03:33:25;24.30;;;9.63;;
66095;SDS011;53861;53.422;14.530;2023-05-07T03:35:55;23.85;;;10.35;;
66095;SDS011;53861;53.422;14.530;2023-05-07T03:38:22;28.10;;;10.45;;
66095;SDS011;53861;53.422;14.530;2023-05-07T03:40:51;24.10;;;10.23;;
66095;SDS011;53861;53.422;14.530;2023-05-07T03:43:22;26.25;;;10.10;;
66095;SDS011;53861;53.422;14.530;2023-05-07T03:45:51;26.10;;;10.10;;
66095;SDS011;53861;53.422;14.530;2023-05-07T03:48:19;25.13;;;9.80;;
66095;SDS011;53861;53.422;14.530;2023-05-07T03:50:46;23.65;;;10.30;;
66095;SDS011;53861;53.422;14.530;2023-05-07T03:53:13;21.25;;;9.32;;
66095;SDS011;53861;53.422;14.530;2023-05-07T03:55:43;21.52;;;9.77;;
66095;SDS011;53861;53.422;14.530;2023-05-07T03:58:13;24.80;;;9.85;;
66095;SDS011;53861;53.422;14.530;2023-05-07T04:00:43;23.33;;;10.38;;
66095;SDS011;53861;53.422;14.530;2023-05-07T04:03:11;25.08;;;10.20;;
66095;SDS011;53861;53.422;14.530;2023-05-07T04:05:38;25.58;;;9.30;;
66095;SDS011;53861;53.422;14.530;2023-05-07T04:08:09;23.83;;;9.90;;
66095;SDS011;53861;53.422;14.530;2023-05-07T04:10:36;25.02;;;9.32;;
66095;SDS011;53861;53.422;14.530;2023-05-07T04:13:03;22.38;;;9.20;;
66095;SDS011;53861;53.422;14.530;2023-05-07T04:15:32;21.17;;;9.18;;
66095;SDS011;53861;53.422;14.530;2023-05-07T04:17:59;21.23;;;9.65;;
66095;SDS011;53861;53.422;14.530;2023-05-07T04:20:26;29.88;;;10.73;;
66095;SDS011;53861;53.422;14.530;2023-05-07T04:22:54;24.92;;;9.93;;
66095;SDS011;53861;53.422;14.530;2023-05-07T04:25:40;25.60;;;10.10;;
66095;SDS011;53861;53.422;14.530;2023-05-07T04:28:07;25.67;;;11.00;;
66095;SDS011;53861;53.422;14.530;2023-05-07T04:30:38;27.50;;;11.00;;
66095;SDS011;53861;53.422;14.530;2023-05-07T04:33:07;24.02;;;10.50;;
66095;SDS011;53861;53.422;14.530;2023-05-07T04:35:34;25.65;;;11.30;;
66095;SDS011;53861;53.422;14.530;2023-05-07T04:38:02;27.88;;;11.13;;
66095;SDS011;53861;53.422;14.530;2023-05-07T04:40:29;24.92;;;10.25;;
66095;SDS011;53861;53.422;14.530;2023-05-07T04:42:56;24.15;;;9.68;;
66095;SDS011;53861;53.422;14.530;2023-05-07T04:45:24;27.20;;;9.65;;
66095;SDS011;53861;53.422;14.530;2023-05-07T04:47:52;24.90;;;9.77;;
66095;SDS011;53861;53.422;14.530;2023-05-07T04:50:20;19.90;;;9.00;;
66095;SDS011;53861;53.422;14.530;2023-05-07T04:52:49;22.52;;;9.00;;
66095;SDS011;53861;53.422;14.530;2023-05-07T04:55:16;22.10;;;9.05;;
66095;SDS011;53861;53.422;14.530;2023-05-07T04:57:43;22.83;;;9.32;;
66095;SDS011;53861;53.422;14.530;2023-05-07T05:00:11;23.67;;;9.65;;
66095;SDS011;53861;53.422;14.530;2023-05-07T05:02:39;34.45;;;13.75;;
66095;SDS011;53861;53.422;14.530;2023-05-07T05:05:09;24.77;;;10.15;;
66095;SDS011;53861;53.422;14.530;2023-05-07T05:07:37;21.83;;;9.38;;
66095;SDS011;53861;53.422;14.530;2023-05-07T05:10:04;21.83;;;9.32;;
66095;SDS011;53861;53.422;14.530;2023-05-07T05:12:32;22.95;;;8.90;;
66095;SDS011;53861;53.422;14.530;2023-05-07T05:14:59;22.90;;;10.00;;
66095;SDS011;53861;53.422;14.530;2023-05-07T05:17:27;23.92;;;9.40;;
66095;SDS011;53861;53.422;14.530;2023-05-07T05:19:54;20.75;;;9.40;;
66095;SDS011;53861;53.422;14.530;2023-05-07T05:22:23;34.28;;;15.80;;
66095;SDS011;53861;53.422;14.530;2023-05-07T05:24:51;26.23;;;10.55;;
66095;SDS011;53861;53.422;14.530;2023-05-07T05:27:18;23.55;;;10.18;;
66095;SDS011;53861;53.422;14.530;2023-05-07T05:29:45;23.25;;;11.05;;
66095;SDS011;53861;53.422;14.530;2023-05-07T05:32:13;27.88;;;11.07;;
66095;SDS011;53861;53.422;14.530;2023-05-07T05:34:40;22.08;;;11.10;;
66095;SDS011;53861;53.422;14.530;2023-05-07T05:37:07;23.85;;;10.95;;
66095;SDS011;53861;53.422;14.530;2023-05-07T05:39:36;23.50;;;10.98;;
66095;SDS011;53861;53.422;14.530;2023-05-07T05:42:03;29.13;;;11.13;;
66095;SDS011;53861;53.422;14.530;2023-05-07T05:44:31;24.75;;;10.40;;
66095;SDS011;53861;53.422;14.530;2023-05-07T05:46:58;23.52;;;10.40;;
66095;SDS011;53861;53.422;14.530;2023-05-07T05:49:25;24.45;;;10.07;;
66095;SDS011;53861;53.422;14.530;2023-05-07T05:51:53;24.23;;;9.63;;
66095;SDS011;53861;53.422;14.530;2023-05-07T05:54:21;25.48;;;11.07;;
66095;SDS011;53861;53.422;14.530;2023-05-07T05:56:50;25.42;;;10.38;;
66095;SDS011;53861;53.422;14.530;2023-05-07T05:59:17;25.75;;;10.45;;
66095;SDS011;53861;53.422;14.530;2023-05-07T06:01:44;29.17;;;10.23;;
66095;SDS011;53861;53.422;14.530;2023-05-07T06:04:11;20.75;;;10.02;;
66095;SDS011;53861;53.422;14.530;2023-05-07T06:06:39;25.27;;;9.90;;
66095;SDS011;53861;53.422;14.530;2023-05-07T06:09:06;21.33;;;9.55;;
66095;SDS011;53861;53.422;14.530;2023-05-07T06:11:33;21.50;;;9.15;;
66095;SDS011;53861;53.422;14.530;2023-05-07T06:14:02;23.60;;;9.80;;
66095;SDS011;53861;53.422;14.530;2023-05-07T06:16:29;25.10;;;9.48;;
66095;SDS011;53861;53.422;14.530;2023-05-07T06:18:56;23.60;;;9.65;;
66095;SDS011;53861;53.422;14.530;2023-05-07T06:21:24;23.33;;;10.38;;
66095;SDS011;53861;53.422;14.530;2023-05-07T06:23:51;19.58;;;8.65;;
66095;SDS011;53861;53.422;14.530;2023-05-07T06:26:20;22.77;;;9.07;;
66095;SDS011;53861;53.422;14.530;2023-05-07T06:28:47;19.77;;;8.88;;
66095;SDS011;53861;53.422;14.530;2023-05-07T06:31:16;20.25;;;9.10;;
66095;SDS011;53861;53.422;14.530;2023-05-07T06:33:46;16.63;;;7.88;;
66095;SDS011;53861;53.422;14.530;2023-05-07T06:36:13;20.50;;;8.02;;
66095;SDS011;53861;53.422;14.530;2023-05-07T06:38:41;20.25;;;9.10;;
66095;SDS011;53861;53.422;14.530;2023-05-07T06:41:08;21.83;;;8.55;;
66095;SDS011;53861;53.422;14.530;2023-05-07T06:43:35;16.40;;;7.80;;
66095;SDS011;53861;53.422;14.530;2023-05-07T06:46:03;18.10;;;7.97;;
66095;SDS011;53861;53.422;14.530;2023-05-07T06:48:32;17.45;;;8.15;;
66095;SDS011;53861;53.422;14.530;2023-05-07T06:50:59;19.23;;;7.55;;
66095;SDS011;53861;53.422;14.530;2023-05-07T06:53:26;15.88;;;7.65;;
66095;SDS011;53861;53.422;14.530;2023-05-07T06:55:54;18.35;;;8.05;;
66095;SDS011;53861;53.422;14.530;2023-05-07T06:58:21;16.27;;;7.40;;
66095;SDS011;53861;53.422;14.530;2023-05-07T07:00:49;17.05;;;7.00;;
66095;SDS011;53861;53.422;14.530;2023-05-07T07:03:16;17.55;;;7.60;;
66095;SDS011;53861;53.422;14.530;2023-05-07T07:05:45;14.55;;;7.05;;
66095;SDS011;53861;53.422;14.530;2023-05-07T07:08:12;14.65;;;6.63;;
66095;SDS011;53861;53.422;14.530;2023-05-07T07:10:40;14.55;;;7.18;;
66095;SDS011;53861;53.422;14.530;2023-05-07T07:13:07;16.83;;;7.10;;
66095;SDS011;53861;53.422;14.530;2023-05-07T07:15:34;13.40;;;6.50;;
66095;SDS011;53861;53.422;14.530;2023-05-07T07:18:02;15.98;;;6.90;;
66095;SDS011;53861;53.422;14.530;2023-05-07T07:20:29;14.73;;;6.47;;
66095;SDS011;53861;53.422;14.530;2023-05-07T07:22:57;15.65;;;7.13;;
66095;SDS011;53861;53.422;14.530;2023-05-07T07:25:25;14.73;;;6.55;;
66095;SDS011;53861;53.422;14.530;2023-05-07T07:27:52;19.08;;;6.80;;
66095;SDS011;53861;53.422;14.530;2023-05-07T07:30:19;15.50;;;5.57;;
66095;SDS011;53861;53.422;14.530;2023-05-07T07:32:47;11.65;;;5.80;;
66095;SDS011;53861;53.422;14.530;2023-05-07T07:35:14;14.10;;;6.03;;
66095;SDS011;53861;53.422;14.530;2023-05-07T07:37:41;15.70;;;6.13;;
66095;SDS011;53861;53.422;14.530;2023-05-07T07:40:11;14.63;;;6.28;;
66095;SDS011;53861;53.422;14.530;2023-05-07T07:42:39;13.93;;;6.00;;
66095;SDS011;53861;53.422;14.530;2023-05-07T07:45:06;10.45;;;5.32;;
66095;SDS011;53861;53.422;14.530;2023-05-07T07:47:34;14.93;;;5.60;;
66095;SDS011;53861;53.422;14.530;2023-05-07T07:50:08;12.20;;;5.38;;
66095;SDS011;53861;53.422;14.530;2023-05-07T07:52:36;10.63;;;5.43;;
66095;SDS011;53861;53.422;14.530;2023-05-07T07:55:03;12.52;;;5.82;;
66095;SDS011;53861;53.422;14.530;2023-05-07T07:57:33;12.65;;;5.28;;
66095;SDS011;53861;53.422;14.530;2023-05-07T08:00:00;12.07;;;5.60;;
66095;SDS011;53861;53.422;14.530;2023-05-07T08:02:29;12.32;;;5.80;;
66095;SDS011;53861;53.422;14.530;2023-05-07T08:04:57;12.57;;;5.85;;
66095;SDS011;53861;53.422;14.530;2023-05-07T08:07:26;14.63;;;6.15;;
66095;SDS011;53861;53.422;14.530;2023-05-07T08:09:54;14.68;;;6.25;;
66095;SDS011;53861;53.422;14.530;2023-05-07T08:12:22;13.32;;;6.03;;
66095;SDS011;53861;53.422;14.530;2023-05-07T08:14:51;19.73;;;6.00;;
66095;SDS011;53861;53.422;14.530;2023-05-07T08:17:21;12.80;;;5.65;;
66095;SDS011;53861;53.422;14.530;2023-05-07T08:22:19;14.38;;;6.20;;
66095;SDS011;53861;53.422;14.530;2023-05-07T08:24:47;14.07;;;6.00;;
66095;SDS011;53861;53.422;14.530;2023-05-07T08:27:19;10.30;;;5.28;;
66095;SDS011;53861;53.422;14.530;2023-05-07T08:29:46;13.18;;;5.75;;
66095;SDS011;53861;53.422;14.530;2023-05-07T08:32:15;14.50;;;5.57;;
66095;SDS011;53861;53.422;14.530;2023-05-07T08:34:46;11.68;;;5.45;;
66095;SDS011;53861;53.422;14.530;2023-05-07T08:39:42;11.93;;;6.30;;
66095;SDS011;53861;53.422;14.530;2023-05-07T08:42:13;11.27;;;5.53;;
66095;SDS011;53861;53.422;14.530;2023-05-07T08:44:45;10.73;;;5.22;;
66095;SDS011;53861;53.422;14.530;2023-05-07T08:47:23;12.48;;;5.60;;
66095;SDS011;53861;53.422;14.530;2023-05-07T08:49:56;11.77;;;5.63;;
66095;SDS011;53861;53.422;14.530;2023-05-07T08:52:26;12.38;;;5.68;;
66095;SDS011;53861;53.422;14.530;2023-05-07T08:54:56;12.75;;;5.90;;
66095;SDS011;53861;53.422;14.530;2023-05-07T08:57:26;14.82;;;4.88;;
66095;SDS011;53861;53.422;14.530;2023-05-07T08:59:56;12.43;;;5.32;;
66095;SDS011;53861;53.422;14.530;2023-05-07T09:02:25;10.07;;;5.32;;
66095;SDS011;53861;53.422;14.530;2023-05-07T09:04:55;9.90;;;5.00;;
66095;SDS011;53861;53.422;14.530;2023-05-07T09:07:25;13.48;;;5.20;;
66095;SDS011;53861;53.422;14.530;2023-05-07T09:09:55;10.75;;;5.13;;
66095;SDS011;53861;53.422;14.530;2023-05-07T09:12:25;10.00;;;4.70;;
66095;SDS011;53861;53.422;14.530;2023-05-07T09:14:53;10.35;;;4.68;;
66095;SDS011;53861;53.422;14.530;2023-05-07T09:17:30;13.63;;;4.60;;
66095;SDS011;53861;53.422;14.530;2023-05-07T09:20:01;8.15;;;4.22;;
66095;SDS011;53861;53.422;14.530;2023-05-07T09:22:35;9.55;;;4.47;;
66095;SDS011;53861;53.422;14.530;2023-05-07T09:25:06;7.35;;;4.00;;
66095;SDS011;53861;53.422;14.530;2023-05-07T09:27:34;10.63;;;4.53;;
66095;SDS011;53861;53.422;14.530;2023-05-07T09:30:05;9.70;;;4.50;;
66095;SDS011;53861;53.422;14.530;2023-05-07T09:32:36;9.15;;;5.00;;
66095;SDS011;53861;53.422;14.530;2023-05-07T09:35:04;10.75;;;4.70;;
66095;SDS011;53861;53.422;14.530;2023-05-07T09:37:35;15.02;;;6.60;;
66095;SDS011;53861;53.422;14.530;2023-05-07T09:40:03;7.32;;;4.10;;
66095;SDS011;53861;53.422;14.530;2023-05-07T09:42:35;9.85;;;4.35;;
66095;SDS011;53861;53.422;14.530;2023-05-07T09:45:02;9.63;;;3.95;;
66095;SDS011;53861;53.422;14.530;2023-05-07T09:47:37;10.52;;;4.45;;
66095;SDS011;53861;53.422;14.530;2023-05-07T09:50:07;8.25;;;4.00;;
66095;SDS011;53861;53.422;14.530;2023-05-07T09:52:37;8.57;;;4.22;;
66095;SDS011;53861;53.422;14.530;2023-05-07T09:55:10;8.32;;;4.03;;
66095;SDS011;53861;53.422;14.530;2023-05-07T09:57:44;9.80;;;5.07;;
66095;SDS011;53861;53.422;14.530;2023-05-07T10:00:22;10.65;;;4.60;;
66095;SDS011;53861;53.422;14.530;2023-05-07T10:02:56;8.88;;;4.57;;
66095;SDS011;53861;53.422;14.530;2023-05-07T10:05:27;10.35;;;4.30;;
66095;SDS011;53861;53.422;14.530;2023-05-07T10:07:55;7.25;;;4.30;;
66095;SDS011;53861;53.422;14.530;2023-05-07T10:10:26;11.15;;;4.70;;
66095;SDS011;53861;53.422;14.530;2023-05-07T10:12:57;13.13;;;5.00;;
66095;SDS011;53861;53.422;14.530;2023-05-07T10:15:31;12.55;;;5.15;;
66095;SDS011;53861;53.422;14.530;2023-05-07T10:18:00;13.75;;;6.18;;
66095;SDS011;53861;53.422;14.530;2023-05-07T10:20:29;8.52;;;4.80;;
66095;SDS011;53861;53.422;14.530;2023-05-07T10:22:56;11.45;;;4.75;;
66095;SDS011;53861;53.422;14.530;2023-05-07T10:25:25;10.13;;;5.10;;
66095;SDS011;53861;53.422;14.530;2023-05-07T10:27:56;10.40;;;4.18;;
66095;SDS011;53861;53.422;14.530;2023-05-07T10:30:26;8.40;;;4.68;;
66095;SDS011;53861;53.422;14.530;2023-05-07T10:33:05;10.43;;;4.80;;
66095;SDS011;53861;53.422;14.530;2023-05-07T10:35:36;8.23;;;4.47;;
66095;SDS011;53861;53.422;14.530;2023-05-07T10:38:06;10.18;;;4.80;;
66095;SDS011;53861;53.422;14.530;2023-05-07T10:40:33;8.95;;;5.20;;
66095;SDS011;53861;53.422;14.530;2023-05-07T10:43:01;8.57;;;5.00;;
66095;SDS011;53861;53.422;14.530;2023-05-07T10:45:30;11.32;;;5.43;;
66095;SDS011;53861;53.422;14.530;2023-05-07T10:48:12;9.05;;;5.03;;
66095;SDS011;53861;53.422;14.530;2023-05-07T10:50:41;9.57;;;4.97;;
66095;SDS011;53861;53.422;14.530;2023-05-07T10:53:21;8.80;;;5.15;;
66095;SDS011;53861;53.422;14.530;2023-05-07T10:58:55;8.45;;;4.72;;
66095;SDS011;53861;53.422;14.530;2023-05-07T11:01:49;12.23;;;4.68;;
66095;SDS011;53861;53.422;14.530;2023-05-07T11:04:19;12.60;;;5.20;;
66095;SDS011;53861;53.422;14.530;2023-05-07T11:09:58;9.93;;;4.80;;
66095;SDS011;53861;53.422;14.530;2023-05-07T11:12:51;10.60;;;4.55;;
66095;SDS011;53861;53.422;14.530;2023-05-07T11:15:41;12.90;;;4.85;;
66095;SDS011;53861;53.422;14.530;2023-05-07T11:18:10;9.70;;;4.57;;
66095;SDS011;53861;53.422;14.530;2023-05-07T11:26:24;9.30;;;4.78;;
66095;SDS011;53861;53.422;14.530;2023-05-07T11:28:52;9.52;;;4.60;;
66095;SDS011;53861;53.422;14.530;2023-05-07T11:31:21;10.63;;;5.00;;
66095;SDS011;53861;53.422;14.530;2023-05-07T11:33:50;9.65;;;4.78;;
66095;SDS011;53861;53.422;14.530;2023-05-07T11:36:19;8.60;;;4.00;;
66095;SDS011;53861;53.422;14.530;2023-05-07T11:38:47;8.00;;;4.10;;
66095;SDS011;53861;53.422;14.530;2023-05-07T11:41:15;8.52;;;4.22;;
66095;SDS011;53861;53.422;14.530;2023-05-07T11:46:30;9.35;;;3.97;;
66095;SDS011;53861;53.422;14.530;2023-05-07T11:48:57;9.15;;;4.00;;
66095;SDS011;53861;53.422;14.530;2023-05-07T11:51:26;8.98;;;3.70;;
66095;SDS011;53861;53.422;14.530;2023-05-07T11:53:53;8.48;;;3.92;;
66095;SDS011;53861;53.422;14.530;2023-05-07T11:56:21;9.07;;;4.40;;
66095;SDS011;53861;53.422;14.530;2023-05-07T11:58:48;8.52;;;3.97;;
66095;SDS011;53861;53.422;14.530;2023-05-07T12:01:17;9.27;;;3.45;;
66095;SDS011;53861;53.422;14.530;2023-05-07T12:03:45;8.48;;;3.58;;
66095;SDS011;53861;53.422;14.530;2023-05-07T12:06:14;8.55;;;3.70;;
66095;SDS011;53861;53.422;14.530;2023-05-07T12:08:44;8.50;;;3.72;;
66095;SDS011;53861;53.422;14.530;2023-05-07T12:11:15;6.78;;;3.60;;
66095;SDS011;53861;53.422;14.530;2023-05-07T12:13:48;9.05;;;3.80;;
66095;SDS011;53861;53.422;14.530;2023-05-07T12:16:15;11.00;;;3.88;;
66095;SDS011;53861;53.422;14.530;2023-05-07T12:18:43;7.05;;;3.80;;
66095;SDS011;53861;53.422;14.530;2023-05-07T12:21:11;7.50;;;3.65;;
66095;SDS011;53861;53.422;14.530;2023-05-07T12:23:39;8.68;;;3.67;;
66095;SDS011;53861;53.422;14.530;2023-05-07T12:26:08;10.50;;;3.60;;
66095;SDS011;53861;53.422;14.530;2023-05-07T12:28:36;6.15;;;3.40;;
66095;SDS011;53861;53.422;14.530;2023-05-07T12:31:04;6.22;;;3.60;;
66095;SDS011;53861;53.422;14.530;2023-05-07T12:33:32;9.65;;;3.70;;
66095;SDS011;53861;53.422;14.530;2023-05-07T12:36:02;10.55;;;3.85;;
66095;SDS011;53861;53.422;14.530;2023-05-07T12:38:35;6.75;;;3.75;;
66095;SDS011;53861;53.422;14.530;2023-05-07T12:41:04;6.80;;;3.63;;
66095;SDS011;53861;53.422;14.530;2023-05-07T12:43:34;7.13;;;3.60;;
66095;SDS011;53861;53.422;14.530;2023-05-07T12:46:02;7.47;;;2.90;;
66095;SDS011;53861;53.422;14.530;2023-05-07T12:48:31;7.50;;;3.45;;
66095;SDS011;53861;53.422;14.530;2023-05-07T12:50:59;8.18;;;3.90;;
66095;SDS011;53861;53.422;14.530;2023-05-07T12:53:27;7.75;;;4.00;;
66095;SDS011;53861;53.422;14.530;2023-05-07T12:55:57;8.48;;;3.63;;
66095;SDS011;53861;53.422;14.530;2023-05-07T12:58:25;8.68;;;3.88;;
66095;SDS011;53861;53.422;14.530;2023-05-07T13:00:56;8.73;;;3.60;;
66095;SDS011;53861;53.422;14.530;2023-05-07T13:03:25;7.68;;;3.20;;
66095;SDS011;53861;53.422;14.530;2023-05-07T13:05:54;7.90;;;3.40;;
66095;SDS011;53861;53.422;14.530;2023-05-07T13:08:28;11.10;;;4.25;;
66095;SDS011;53861;53.422;14.530;2023-05-07T13:10:57;7.15;;;3.45;;
66095;SDS011;53861;53.422;14.530;2023-05-07T13:13:28;6.53;;;3.42;;
66095;SDS011;53861;53.422;14.530;2023-05-07T13:15:57;9.25;;;3.70;;
66095;SDS011;53861;53.422;14.530;2023-05-07T13:18:25;8.02;;;3.67;;
66095;SDS011;53861;53.422;14.530;2023-05-07T13:20:53;10.60;;;4.00;;
66095;SDS011;53861;53.422;14.530;2023-05-07T13:23:20;7.70;;;3.90;;
66095;SDS011;53861;53.422;14.530;2023-05-07T13:25:48;7.00;;;3.65;;
66095;SDS011;53861;53.422;14.530;2023-05-07T13:28:16;7.00;;;3.85;;
66095;SDS011;53861;53.422;14.530;2023-05-07T13:30:43;7.63;;;3.85;;
66095;SDS011;53861;53.422;14.530;2023-05-07T13:33:12;8.68;;;3.50;;
66095;SDS011;53861;53.422;14.530;2023-05-07T13:35:39;7.95;;;4.20;;
66095;SDS011;53861;53.422;14.530;2023-05-07T13:38:07;6.65;;;3.45;;
66095;SDS011;53861;53.422;14.530;2023-05-07T13:40:34;7.72;;;3.33;;
66095;SDS011;53861;53.422;14.530;2023-05-07T13:43:01;6.13;;;3.50;;
66095;SDS011;53861;53.422;14.530;2023-05-07T13:45:29;7.75;;;3.90;;
66095;SDS011;53861;53.422;14.530;2023-05-07T13:47:56;7.70;;;3.80;;
66095;SDS011;53861;53.422;14.530;2023-05-07T13:50:25;6.45;;;3.47;;
66095;SDS011;53861;53.422;14.530;2023-05-07T13:52:55;11.05;;;3.60;;
66095;SDS011;53861;53.422;14.530;2023-05-07T13:55:23;8.98;;;4.05;;
66095;SDS011;53861;53.422;14.530;2023-05-07T13:57:54;8.15;;;3.90;;
66095;SDS011;53861;53.422;14.530;2023-05-07T14:00:22;9.60;;;3.90;;
66095;SDS011;53861;53.422;14.530;2023-05-07T14:02:50;10.82;;;4.20;;
66095;SDS011;53861;53.422;14.530;2023-05-07T14:05:17;9.20;;;4.40;;
66095;SDS011;53861;53.422;14.530;2023-05-07T14:07:46;8.23;;;4.00;;
66095;SDS011;53861;53.422;14.530;2023-05-07T14:10:14;9.85;;;4.15;;
66095;SDS011;53861;53.422;14.530;2023-05-07T14:12:42;7.30;;;3.97;;
66095;SDS011;53861;53.422;14.530;2023-05-07T14:15:09;8.57;;;4.20;;
66095;SDS011;53861;53.422;14.530;2023-05-07T14:17:36;11.15;;;4.15;;
66095;SDS011;53861;53.422;14.530;2023-05-07T14:20:04;7.55;;;3.50;;
66095;SDS011;53861;53.422;14.530;2023-05-07T14:22:33;7.97;;;3.90;;
66095;SDS011;53861;53.422;14.530;2023-05-07T14:25:01;11.30;;;4.43;;
66095;SDS011;53861;53.422;14.530;2023-05-07T14:27:30;6.18;;;2.97;;
66095;SDS011;53861;53.422;14.530;2023-05-07T14:29:57;9.93;;;3.92;;
66095;SDS011;53861;53.422;14.530;2023-05-07T14:32:25;9.10;;;3.97;;
66095;SDS011;53861;53.422;14.530;2023-05-07T14:34:53;9.80;;;3.90;;
66095;SDS011;53861;53.422;14.530;2023-05-07T14:37:20;7.70;;;3.63;;
66095;SDS011;53861;53.422;14.530;2023-05-07T14:39:47;12.63;;;4.10;;
66095;SDS011;53861;53.422;14.530;2023-05-07T14:42:16;13.18;;;5.60;;
66095;SDS011;53861;53.422;14.530;2023-05-07T14:44:44;11.13;;;4.07;;
66095;SDS011;53861;53.422;14.530;2023-05-07T14:47:13;8.98;;;4.10;;
66095;SDS011;53861;53.422;14.530;2023-05-07T14:49:41;8.60;;;4.10;;
66095;SDS011;53861;53.422;14.530;2023-05-07T14:52:08;8.63;;;4.25;;
66095;SDS011;53861;53.422;14.530;2023-05-07T14:54:36;11.70;;;4.57;;
66095;SDS011;53861;53.422;14.530;2023-05-07T14:57:04;8.63;;;4.30;;